• Join FlightAware (Why Join?)
  • Login
  • US Flag 
08:50PM EDT


 

Airport Tracker/Info


-or-


 

Live Flight TrackerFlight Track Log ✈ BJS542 ✈ 26-Apr-2013 ✈ KIRK - KDET

Flight Track Log - Related Links

Times and Time Zones

All times are in EDT time to prevent confusion due to time zone crossing. See the BJS542 flight status page for this flight to view local times or setup timezone preferences in your user account.

Time Position Orientation Groundspeed Altitude Reporting Facility
EDT Latitude Longitude Course Direction KTS MPH feet Rate Location/Type
10:44AM 40.0664 -92.5081 78° East 245 282 3,600  Level Kansas City Center
10:45AM 40.0839 -92.4022 78° East 278 320 10,300 5,400 Climbing Kansas City Center
10:46AM 40.1122 -92.2867 72° East 330 380 14,700 3,840 Climbing Kansas City Center
10:47AM 40.1431 -92.1575 73° East 365 420 18,200 3,120 Climbing Kansas City Center
10:48AM 40.1781 -92.0100 73° East 416 479 21,200 2,220 Climbing Kansas City Center
10:49AM 40.2156 -91.8489 73° East 463 533 22,800 1,800 Climbing Kansas City Center
10:50AM 40.2642 -91.6475 72° East 486 559 25,000 2,040 Climbing Kansas City Center
10:51AM 40.3047 -91.4767 73° East 492 566 27,000 2,460 Climbing Kansas City Center
10:52AM 40.3453 -91.2994 73° East 508 585 30,000 2,460 Climbing Kansas City Center
10:53AM 40.3906 -91.0989 73° East 515 593 32,200 1,680 Climbing Kansas City Center
10:54AM 40.4083 -91.0236 73° East 522 601 32,600 540 Climbing Chicago Center
10:55AM 40.4517 -90.8317 73° East 543 625 33,000 660 Climbing Chicago Center
10:56AM 40.4944 -90.6439 73° East 539 620 34,000 1,500 Climbing Chicago Center
10:57AM 40.5356 -90.4550 74° East 538 619 36,200 1,980 Climbing Chicago Center
10:58AM 40.5933 -90.2294 71° East 534 615 38,200 1,860 Climbing Chicago Center
10:59AM 40.6608 -90.0594 62° Northeast 525 604 40,100 1,980 Climbing Chicago Center
11:00AM 40.7278 -89.8953 62° Northeast 515 593 42,300 1,800 Climbing Chicago Center
11:01AM 40.7958 -89.7400 60° Northeast 497 572 43,900 1,260 Climbing Chicago Center
11:02AM 40.8611 -89.5881 60° Northeast 479 551 45,000 480 Climbing Chicago Center
11:03AM 40.9317 -89.4164 61° Northeast 485 558 45,000  Level Chicago Center
11:04AM 40.9975 -89.2550 62° Northeast 495 570 45,000  Level Chicago Center
11:05AM 41.0692 -89.0781 62° Northeast 498 573 45,000  Level Chicago Center
11:06AM 41.1325 -88.9203 62° Northeast 491 565 45,000  Level Chicago Center
11:07AM 41.1956 -88.7622 62° Northeast 488 562 45,000  Level Chicago Center
11:08AM 41.2581 -88.6047 62° Northeast 485 558 45,000  Level Chicago Center
11:09AM 41.3214 -88.4458 62° Northeast 481 554 45,000  Level Chicago Center
11:10AM 41.3978 -88.2542 62° Northeast 488 562 45,000  Level Chicago Center
11:11AM 41.4553 -88.1058 63° Northeast 489 563 45,000 -360 Level Chicago Center
11:12AM 41.5222 -87.9475 61° Northeast 488 562 44,300 -960 Descending Chicago Center
11:13AM 41.5922 -87.7547 64° Northeast 505 581 43,100 -1,080 Descending Chicago Center
11:14AM 41.6558 -87.5897 63° Northeast 502 578 42,100 -1,020 Descending Chicago Center
11:15AM 41.7203 -87.4231 63° Northeast 505 581 41,100 -1,020 Descending Chicago Center
11:16AM 41.7822 -87.2578 63° Northeast 501 577 40,100 -1,020 Descending Chicago Center
11:17AM 41.8442 -87.0919 63° Northeast 500 575 39,100 -1,020 Descending Chicago Center
11:18AM 41.9086 -86.9242 63° Northeast 505 581 38,100 -1,500 Descending Chicago Center
11:19AM 42.0017 -86.7331 57° Northeast 513 590 36,000 -1,860 Descending Chicago Center
11:20AM 42.0808 -86.6108 63° Northeast 518 596 34,400 -2,100 Descending Chicago Center
11:21AM 42.0446 -86.5370 63° Northeast  Level FlightAware Approximate
11:21AM 42.1892 -86.4344 50° Northeast 510 587 31,700  Level Chicago Center
11:22AM 42.2831 -86.2825 50° Northeast 522 601 29,500 -2,100 Descending Chicago Center
11:23AM 42.3728 -86.1528 47° Northeast 513 590 27,400 -2,100 Descending Chicago Center
11:24AM 42.4586 -86.0189 49° Northeast 487 560 25,200 -1,680 Descending Chicago Center
11:25AM 42.5056 -85.8136 73° East 481 554 24,000 -960 Descending Chicago Center
11:27AM 42.5389 -85.6472 75° East 466 536 23,300 -780 Descending Chicago Center
11:28AM 42.5703 -85.4789 76° East 465 535 22,500 -780 Descending Chicago Center
11:29AM 42.6011 -85.3128 76° East 461 531 21,800 -720 Descending Chicago Center
11:30AM 42.6317 -85.1478 76° East 457 526 21,100 -420 Descending Chicago Center
11:31AM 42.6683 -84.9558 75° East 443 510 21,000 -1,080 Descending Chicago Center
11:32AM 42.6975 -84.8006 76° East 428 493 18,900 -1,800 Descending Chicago Center
11:33AM 42.7181 -84.6489 79° East 413 475 17,400 -1,800 Descending Chicago Center
11:34AM 42.7150 -84.4917 91° East 411 473 15,400 -2,040 Descending Cleveland Center
11:35AM 42.7114 -84.3472 92° East 398 458 13,500 -1,980 Descending Cleveland Center
11:35AM 42.7136 -84.2739 88° East 385 443 12,500 -1,740 Descending Cleveland Center
11:36AM 42.7092 -84.2200 96° East 385 443 11,800 -1,800 Descending Cleveland Center
11:36AM 42.7094 -84.1408 90° East 351 404 10,700 -1,740 Descending Cleveland Center
11:37AM 42.7069 -84.0928 94° East 360 414 10,100 -1,500 Descending Cleveland Center
11:37AM 42.7069 -84.0192 90° East 305 351 9,200 -1,920 Descending Cleveland Center
11:38AM 42.7144 -83.9094 85° East 292 336 7,200 -1,500 Descending Cleveland Center
11:39AM 42.7178 -83.8672 84° East 294 338 7,000 -240 Descending Cleveland Center
11:39AM 42.7217 -83.7994 86° East 294 338 7,000 -120 Level Cleveland Center
11:40AM 42.7275 -83.7433 82° East 289 333 6,900 -720 Descending Cleveland Center
11:40AM 42.7333 -83.6814 83° East 294 338 6,300 -1,140 Descending Cleveland Center
11:41AM 42.7386 -83.6392 80° East 289 333 5,800 -1,140 Descending Cleveland Center
11:41AM 42.7464 -83.5775 80° East 272 313 5,200 -840 Descending Cleveland Center
11:42AM 42.7433 -83.5378 96° East 284 327 5,000 -240 Descending Cleveland Center
11:42AM 42.7281 -83.4803 110° East 261 300 5,000 -180 Level Cleveland Center
11:43AM 42.7075 -83.3889 107° East 261 300 4,800 -540 Descending Cleveland Center
11:44AM 42.6844 -83.3033 110° East 234 269 4,000 -420 Descending Cleveland Center
11:45AM 42.6400 -83.2419 135° Southeast 225 259 4,000 -540 Level Cleveland Center
11:46AM 42.5889 -83.1919 144° Southeast 218 251 3,000 -480 Descending Cleveland Center
11:47AM 42.5381 -83.1361 141° Southeast 208 239 3,000 -180 Level Cleveland Center
11:48AM 42.4933 -83.0950 146° Southeast 182 209 2,700 -660 Descending Cleveland Center
11:50AM 42.4544 -83.0569 144° Southeast 136 157 1,600 -900 Descending Cleveland Center
11:50AM 42.4300 -83.0333 145° Southeast 124 143 1,000 -780 Descending Cleveland Center
11:52AM 42.4093 -83.0102 123° Southeast  Level Estimated